Terminal Aerodrome Forecast
Issued by NWS

Home | Current Version | Previous Version | Text Only | Print | Product List | Glossary On
Versions: 1 2 3 4 5 6 7 8 9 10 11 12 13 14 15 16 17 18 19 20 21 22 23 24 25 26 27 28 29 30 31 32 33 34 35 36 37 38 39
000
FTUS44 KOUN 222123 AAA
TAFCSM
TAF AMD
KCSM 222123Z 2221/2318 32012KT P6SM BKN120
     FM230000 VRB04KT P6SM SCT150 SCT250
     FM230600 33010G15KT P6SM BKN150
     FM231300 34015G20KT P6SM BKN150
     FM231700 34020G28KT P6SM SCT150=

USA.gov is the U.S. government's official web portal to all federal, state and local government web resources and services.